Time;durP1;ratioP1;P1;durP2;ratioP2;P2;SDS_P1;SDS_P2;PMS_P1;PMS_P2;Temp;Humidity;BMP_temperature;BMP_pressure;BME280_temperature;BME280_humidity;BME280_pressure;Samples;Min_cycle;Max_cycle;Signal;HPM_P1;HPM_P2
2022/01/12 00:01:03;;;;;;;22.08;10.40;;;;;;;-141.50;100.00;63355.56;5069941;28;20451;-78
2022/01/12 00:03:29;;;;;;;22.02;10.20;;;;;;;-141.50;100.00;63355.56;5069195;28;20048;-76
2022/01/12 00:05:56;;;;;;;19.27;10.10;;;;;;;-141.50;100.00;63355.56;5069742;28;20071;-77
2022/01/12 00:08:23;;;;;;;22.65;9.65;;;;;;;-141.50;100.00;63355.56;5067601;28;20083;-77
2022/01/12 00:10:49;;;;;;;23.85;10.18;;;;;;;-141.50;100.00;63355.56;5068636;28;20478;-77
2022/01/12 00:13:16;;;;;;;22.73;9.80;;;;;;;-141.50;100.00;63355.56;5069824;28;20082;-77
2022/01/12 00:15:43;;;;;;;23.42;9.77;;;;;;;-141.50;100.00;63355.56;5069196;28;20052;-77
2022/01/12 00:18:09;;;;;;;17.25;8.38;;;;;;;-141.50;100.00;63355.56;5067500;28;20044;-76
2022/01/12 00:20:36;;;;;;;14.77;7.40;;;;;;;-141.50;100.00;63355.56;5069583;28;20044;-76
2022/01/12 00:23:02;;;;;;;17.10;8.05;;;;;;;-141.50;100.00;63355.56;5069287;28;20382;-76
2022/01/12 00:25:33;;;;;;;21.02;8.52;;;;;;;-141.50;100.00;63355.56;5070096;28;20108;-78
2022/01/12 00:33:29;;;;;;;16.88;8.35;;;;;;;-141.50;100.00;63355.56;5073011;28;20052;-77
2022/01/12 00:35:58;;;;;;;18.15;7.97;;;;;;;-141.50;100.00;63355.56;5073046;28;20136;-77
2022/01/12 00:38:29;;;;;;;18.50;8.55;;;;;;;-141.50;100.00;63355.56;5073259;28;20049;-77
2022/01/12 00:40:57;;;;;;;15.68;8.00;;;;;;;-141.50;100.00;63355.56;5071440;28;20564;-77
2022/01/12 00:43:27;;;;;;;19.98;8.55;;;;;;;-141.50;100.00;63355.56;5072355;28;20060;-76
2022/01/12 00:45:54;;;;;;;14.45;7.05;;;;;;;-141.50;100.00;63355.56;5071778;28;20052;-77
2022/01/12 00:48:21;;;;;;;15.73;7.50;;;;;;;-141.50;100.00;63355.56;5072943;28;20052;-77
2022/01/12 00:50:48;;;;;;;19.55;8.35;;;;;;;-141.50;100.00;63355.56;5074833;28;20680;-76
2022/01/12 00:53:16;;;;;;;17.45;8.27;;;;;;;-141.50;100.00;63355.56;5081957;28;20083;-77
2022/01/12 00:55:43;;;;;;;17.30;8.10;;;;;;;-141.50;100.00;63355.56;5078475;28;20063;-78
2022/01/12 00:58:09;;;;;;;19.60;8.30;;;;;;;-141.50;100.00;63355.56;5074598;28;20102;-77
2022/01/12 01:00:36;;;;;;;18.73;8.27;;;;;;;-141.50;100.00;63355.56;5074166;28;20048;-77
2022/01/12 01:03:03;;;;;;;16.30;8.25;;;;;;;-141.50;100.00;63355.56;5078840;28;20071;-77
2022/01/12 01:05:32;;;;;;;19.67;8.45;;;;;;;-141.50;100.00;63355.56;5085035;28;20075;-77
2022/01/12 01:07:59;;;;;;;18.13;8.63;;;;;;;-141.50;100.00;63355.56;5081655;28;20052;-77
2022/01/12 01:12:53;;;;;;;20.73;8.65;;;;;;;-141.50;100.00;63355.56;5075177;28;20049;-77
2022/01/12 01:15:28;;;;;;;21.70;9.55;;;;;;;-141.50;100.00;63355.56;5074566;28;20060;-77
2022/01/12 01:26:10;;;;;;;21.58;9.05;;;;;;;-141.50;100.00;63355.56;5072203;28;20044;-77
2022/01/12 01:28:36;;;;;;;18.40;8.73;;;;;;;-141.50;100.00;63355.56;5073924;28;20106;-78
2022/01/12 01:31:04;;;;;;;20.50;9.63;;;;;;;-141.50;100.00;63355.56;5074568;28;20450;-78
2022/01/12 01:33:32;;;;;;;18.10;8.32;;;;;;;-141.50;100.00;63355.56;5073384;28;20052;-78
2022/01/12 01:35:59;;;;;;;18.65;9.38;;;;;;;-141.50;100.00;63355.56;5070523;28;20451;-77
2022/01/12 01:38:26;;;;;;;16.92;8.60;;;;;;;-141.50;100.00;63355.56;5071839;28;20056;-77
2022/01/12 01:40:53;;;;;;;18.50;9.02;;;;;;;-141.50;100.00;63355.56;5070777;28;20063;-78
2022/01/12 01:54:05;;;;;;;20.50;9.05;;;;;;;-141.50;100.00;63355.56;5071563;28;20045;-77
2022/01/12 01:56:31;;;;;;;18.42;8.65;;;;;;;-141.50;100.00;63355.56;5071171;28;20630;-77
2022/01/12 01:58:58;;;;;;;18.92;9.20;;;;;;;-141.50;100.00;63355.56;5070519;28;20102;-77
2022/01/12 02:01:25;;;;;;;17.65;8.77;;;;;;;-141.50;100.00;63355.56;5071548;28;20480;-78
2022/01/12 02:03:54;;;;;;;17.50;8.20;;;;;;;-141.50;100.00;63355.56;5068730;28;20102;-77
2022/01/12 02:06:22;;;;;;;19.23;8.40;;;;;;;-141.50;100.00;63355.56;5071759;28;20322;-77
2022/01/12 02:08:49;;;;;;;16.80;8.30;;;;;;;-141.50;100.00;63355.56;5070909;28;20550;-76
2022/01/12 02:11:15;;;;;;;16.73;8.05;;;;;;;-141.50;100.00;63355.56;5069371;28;20071;-77
2022/01/12 02:13:42;;;;;;;16.30;7.53;;;;;;;-141.50;100.00;63355.56;5071545;28;20117;-77
2022/01/12 02:16:08;;;;;;;18.05;8.45;;;;;;;-141.50;100.00;63355.56;5070416;28;20394;-77
2022/01/12 02:18:52;;;;;;;16.85;7.85;;;;;;;-141.50;100.00;63355.56;5070029;28;20057;-77
2022/01/12 02:35:33;;;;;;;21.73;9.80;;;;;;;-141.50;100.00;63355.56;5071082;28;20045;-77
2022/01/12 02:40:31;;;;;;;16.50;8.73;;;;;;;-141.50;100.00;63355.56;5069980;28;20061;-76
2022/01/12 02:53:57;;;;;;;18.25;8.82;;;;;;;-141.50;100.00;63355.56;5069553;28;20130;-76
2022/01/12 02:56:27;;;;;;;16.52;7.50;;;;;;;-141.50;100.00;63355.56;5069332;28;20052;-79
2022/01/12 02:58:56;;;;;;;14.70;7.78;;;;;;;-141.50;100.00;63355.56;5072232;28;20129;-79
2022/01/12 03:04:05;;;;;;;18.52;7.65;;;;;;;-141.50;100.00;63355.56;5072357;28;20051;-78
2022/01/12 03:06:36;;;;;;;17.60;8.90;;;;;;;-141.50;100.00;63355.56;5072119;28;20657;-77
2022/01/12 03:09:04;;;;;;;15.90;8.00;;;;;;;-141.50;100.00;63355.56;5071536;28;20400;-77
2022/01/12 03:11:32;;;;;;;17.20;8.43;;;;;;;-141.50;100.00;63355.56;5071751;28;20048;-78
2022/01/12 03:13:59;;;;;;;16.83;8.63;;;;;;;-141.50;100.00;63355.56;5079341;28;20052;-78
2022/01/12 03:16:27;;;;;;;19.75;9.20;;;;;;;-141.50;100.00;63355.56;5079004;28;20511;-78
2022/01/12 03:19:00;;;;;;;16.88;8.27;;;;;;;-141.50;100.00;63355.56;5071946;28;20052;-79
2022/01/12 03:21:32;;;;;;;15.00;7.68;;;;;;;-141.50;100.00;63355.56;5071799;28;20567;-79
2022/01/12 03:23:59;;;;;;;16.08;7.85;;;;;;;-141.50;100.00;63355.56;5071920;28;20048;-79
2022/01/12 03:26:29;;;;;;;16.83;7.47;;;;;;;-141.50;100.00;63355.56;5071350;28;20067;-78
2022/01/12 03:28:57;;;;;;;16.65;7.18;;;;;;;-141.50;100.00;63355.56;5071628;28;20048;-77
2022/01/12 03:31:29;;;;;;;17.35;6.30;;;;;;;-141.50;100.00;63355.56;5071082;28;20127;-78
2022/01/12 03:37:17;;;;;;;13.07;6.47;;;;;;;-141.50;100.00;63355.56;5069814;28;20057;-76
2022/01/12 03:39:42;;;;;;;14.10;6.75;;;;;;;-141.50;100.00;63355.56;5069237;28;20048;-78
2022/01/12 03:42:09;;;;;;;15.43;6.80;;;;;;;-141.50;100.00;63355.56;5069097;28;20044;-76
2022/01/12 03:44:36;;;;;;;14.50;6.90;;;;;;;-141.50;100.00;63355.56;5070215;28;20059;-76
2022/01/12 03:47:03;;;;;;;17.73;6.90;;;;;;;-141.50;100.00;63355.56;5068836;28;20056;-77
2022/01/12 03:49:29;;;;;;;15.10;7.70;;;;;;;-141.50;100.00;63355.56;5070004;28;20427;-78
2022/01/12 03:51:56;;;;;;;16.50;7.05;;;;;;;-141.50;100.00;63355.56;5070652;28;20040;-78
2022/01/12 03:54:22;;;;;;;14.32;6.75;;;;;;;-141.50;100.00;63355.56;5070165;28;20098;-77
2022/01/12 03:56:49;;;;;;;14.43;7.63;;;;;;;-141.50;100.00;63355.56;5069669;28;20048;-77
2022/01/12 03:59:16;;;;;;;18.63;7.72;;;;;;;-141.50;100.00;63355.56;5070621;28;20322;-76
2022/01/12 04:01:42;;;;;;;15.35;7.50;;;;;;;-141.50;100.00;63355.56;5070397;28;20097;-77
2022/01/12 04:04:18;;;;;;;16.02;8.07;;;;;;;-141.50;100.00;63355.56;5070399;28;20052;-77
2022/01/12 04:09:46;;;;;;;16.23;8.35;;;;;;;-141.50;100.00;63355.56;5073247;28;20155;-78
2022/01/12 04:12:14;;;;;;;17.13;8.10;;;;;;;-141.50;100.00;63355.56;5073497;28;20056;-78
2022/01/12 04:14:41;;;;;;;17.40;8.05;;;;;;;-141.50;100.00;63355.56;5061475;28;20044;-77
2022/01/12 04:17:08;;;;;;;20.30;8.48;;;;;;;-141.50;100.00;63355.56;5070773;28;20143;-77
2022/01/12 04:19:36;;;;;;;14.85;7.30;;;;;;;-141.50;100.00;63355.56;5081183;28;20057;-77
2022/01/12 04:23:16;;;;;;;20.65;7.53;;;;;;;-141.50;100.00;63355.56;5080439;28;20053;-79
2022/01/12 04:24:50;;;;;;;14.23;7.35;;;;;;;-141.50;100.00;63355.56;5072972;28;20401;-78
2022/01/12 04:27:17;;;;;;;18.13;7.53;;;;;;;-141.50;100.00;63355.56;5073346;28;20056;-77
2022/01/12 04:29:43;;;;;;;12.90;6.70;;;;;;;-141.50;100.00;63355.56;5072830;28;20041;-78
2022/01/12 04:32:10;;;;;;;15.23;7.03;;;;;;;-141.50;100.00;63355.56;5076586;28;20112;-77
2022/01/12 04:34:37;;;;;;;14.40;7.20;;;;;;;-141.50;100.00;63355.56;5081834;28;20135;-77
2022/01/12 04:37:04;;;;;;;14.73;7.22;;;;;;;-141.50;100.00;63355.56;5081685;28;20049;-78
2022/01/12 04:39:36;;;;;;;16.60;7.40;;;;;;;-141.50;100.00;63355.56;5083800;28;20511;-77
2022/01/12 04:42:03;;;;;;;13.27;6.40;;;;;;;-141.50;100.00;63355.56;5083075;28;20036;-78
2022/01/12 04:44:30;;;;;;;14.98;6.90;;;;;;;-141.50;100.00;63355.56;5082092;28;20060;-77
2022/01/12 04:47:08;;;;;;;13.40;7.03;;;;;;;-141.50;100.00;63355.56;5082501;28;20049;-77
2022/01/12 04:52:04;;;;;;;19.58;7.30;;;;;;;-141.50;100.00;63355.56;5092498;28;20055;-77
2022/01/12 04:54:30;;;;;;;17.00;7.78;;;;;;;-141.50;100.00;63355.56;5091472;28;20048;-76
2022/01/12 04:56:57;;;;;;;17.85;7.70;;;;;;;-141.50;100.00;63355.56;5090693;28;20056;-78
2022/01/12 04:59:25;;;;;;;16.92;8.13;;;;;;;-141.50;100.00;63355.56;5082375;28;20113;-78
2022/01/12 05:01:57;;;;;;;19.63;7.70;;;;;;;-141.50;100.00;63355.56;5058836;28;20045;-78
2022/01/12 05:07:25;;;;;;;;;;;;;;;;;;;;;
2022/01/12 05:12:42;;;;;;;14.65;7.85;;;;;;;-141.50;100.00;63355.56;5071096;28;20071;-79
2022/01/12 05:12:52;;;;;;;14.93;8.07;;;;;;;-141.50;100.00;63355.56;5081456;28;20056;-77
2022/01/12 05:15:27;;;;;;;17.88;7.55;;;;;;;-141.50;100.00;63355.56;5092522;28;20110;-78
2022/01/12 05:17:54;;;;;;;15.17;7.87;;;;;;;-141.50;100.00;63355.56;5091240;28;20134;-77
2022/01/12 05:20:22;;;;;;;16.05;7.93;;;;;;;-141.50;100.00;63355.56;5092291;28;20827;-76
2022/01/12 05:22:49;;;;;;;14.93;8.48;;;;;;;-141.50;100.00;63355.56;5092489;28;20052;-75
2022/01/12 05:25:17;;;;;;;17.90;8.30;;;;;;;-141.50;100.00;63355.56;5091653;28;20125;-76
2022/01/12 05:27:45;;;;;;;16.38;8.20;;;;;;;-141.50;100.00;63355.56;5091913;28;20105;-77
2022/01/12 05:30:12;;;;;;;23.58;8.93;;;;;;;-141.50;100.00;63355.56;5085098;28;20048;-76
2022/01/12 05:32:39;;;;;;;15.85;8.05;;;;;;;-141.50;100.00;63355.56;5071543;28;20070;-77
2022/01/12 05:35:08;;;;;;;19.25;8.60;;;;;;;-141.50;100.00;63355.56;5069442;28;20048;-77
2022/01/12 05:37:35;;;;;;;21.65;8.95;;;;;;;-141.50;100.00;63355.56;5054085;28;20057;-77
2022/01/12 05:40:03;;;;;;;17.42;8.52;;;;;;;-141.50;100.00;63355.56;5051097;28;20099;-77
2022/01/12 05:42:30;;;;;;;20.70;9.25;;;;;;;-141.50;100.00;63355.56;5052143;28;20068;-77
2022/01/12 05:44:59;;;;;;;16.80;8.25;;;;;;;-141.50;100.00;63355.56;5051744;28;20107;-77
2022/01/12 05:50:11;;;;;;;17.33;8.32;;;;;;;-141.50;100.00;63355.56;5044532;28;20068;-78
2022/01/12 05:52:38;;;;;;;18.20;9.20;;;;;;;-141.50;100.00;63355.56;5077066;28;20275;-78
2022/01/12 05:55:05;;;;;;;20.60;8.23;;;;;;;-141.50;100.00;63355.56;5071744;28;20129;-78
2022/01/12 05:57:33;;;;;;;15.25;8.50;;;;;;;-141.50;100.00;63355.56;5070071;28;20048;-77
2022/01/12 06:00:01;;;;;;;20.17;9.35;;;;;;;-141.50;100.00;63355.56;5070016;28;20048;-78
2022/01/12 06:02:27;;;;;;;17.83;9.02;;;;;;;-141.50;100.00;63355.56;5068648;28;20114;-78
2022/01/12 06:04:54;;;;;;;19.17;9.48;;;;;;;-141.50;100.00;63355.56;5071808;28;20048;-78
2022/01/12 06:07:21;;;;;;;17.73;8.73;;;;;;;-141.50;100.00;63355.56;5069649;28;20044;-78
2022/01/12 06:09:47;;;;;;;23.23;8.82;;;;;;;-141.50;100.00;63355.56;5069100;28;20079;-78
2022/01/12 06:12:14;;;;;;;17.98;8.65;;;;;;;-141.50;100.00;63355.56;5070901;28;20040;-78
2022/01/12 06:14:44;;;;;;;17.30;8.73;;;;;;;-141.50;100.00;63355.56;5071615;28;20102;-79
2022/01/12 06:17:11;;;;;;;21.35;8.98;;;;;;;-141.50;100.00;63355.56;5068128;28;20087;-77
2022/01/12 06:19:39;;;;;;;17.38;9.00;;;;;;;-141.50;100.00;63355.56;5070797;28;20512;-78
2022/01/12 06:22:06;;;;;;;14.80;7.95;;;;;;;-141.50;100.00;63355.56;5070240;28;20082;-78
2022/01/12 06:24:33;;;;;;;16.23;7.72;;;;;;;-141.50;100.00;63355.56;5070089;28;20094;-77
2022/01/12 06:27:01;;;;;;;16.08;7.65;;;;;;;-141.50;100.00;63355.56;5073300;28;20084;-77
2022/01/12 06:29:42;;;;;;;13.90;7.20;;;;;;;-141.50;100.00;63355.56;5061540;28;20574;-76
2022/01/12 06:32:09;;;;;;;15.93;7.50;;;;;;;-141.50;100.00;63355.56;5068253;28;20065;-78
2022/01/12 06:34:36;;;;;;;15.30;7.47;;;;;;;-141.50;100.00;63355.56;5068927;28;20053;-78
2022/01/12 06:37:03;;;;;;;13.60;7.45;;;;;;;-141.50;100.00;63355.56;5068143;28;20048;-78
2022/01/12 06:39:29;;;;;;;17.42;8.25;;;;;;;-141.50;100.00;63355.56;5069738;28;20450;-78
2022/01/12 06:41:56;;;;;;;18.60;8.40;;;;;;;-141.50;100.00;63355.56;5073854;28;20082;-78
2022/01/12 06:44:25;;;;;;;18.70;9.02;;;;;;;-141.50;100.00;63355.56;5076405;28;20048;-78
2022/01/12 06:46:53;;;;;;;18.02;8.90;;;;;;;-141.50;100.00;63355.56;5068467;28;20056;-78
2022/01/12 06:49:20;;;;;;;18.38;8.73;;;;;;;-141.50;100.00;63355.56;5074066;28;20174;-77
2022/01/12 06:51:46;;;;;;;20.05;9.50;;;;;;;-141.50;100.00;63355.56;5070308;28;20059;-77
2022/01/12 06:54:14;;;;;;;19.27;9.65;;;;;;;-141.50;100.00;63355.56;5068807;28;20492;-78
2022/01/12 06:56:40;;;;;;;15.75;9.00;;;;;;;-141.50;100.00;63355.56;5068972;28;20050;-77
2022/01/12 06:59:08;;;;;;;21.38;9.98;;;;;;;-141.50;100.00;63355.56;5073416;28;20045;-78
2022/01/12 07:01:35;;;;;;;20.35;8.95;;;;;;;-141.50;100.00;63355.56;5071713;28;20464;-78
2022/01/12 07:04:02;;;;;;;18.17;8.65;;;;;;;-141.50;100.00;63355.56;5070412;28;20586;-78
2022/01/12 07:06:29;;;;;;;22.50;9.23;;;;;;;-141.50;100.00;63355.56;5070259;28;20079;-78
2022/01/12 07:08:56;;;;;;;24.65;9.57;;;;;;;-141.50;100.00;63355.56;5068921;28;20048;-77
2022/01/12 07:11:22;;;;;;;17.40;9.48;;;;;;;-141.50;100.00;63355.56;5069462;28;20110;-78
2022/01/12 07:13:49;;;;;;;20.38;9.75;;;;;;;-141.50;100.00;63355.56;5070068;28;20459;-78
2022/01/12 07:16:15;;;;;;;21.48;9.98;;;;;;;-141.50;100.00;63355.56;5069679;28;20049;-78
2022/01/12 07:18:42;;;;;;;21.38;9.65;;;;;;;-141.50;100.00;63355.56;5069821;28;20484;-77
2022/01/12 07:21:08;;;;;;;16.45;8.85;;;;;;;-141.50;100.00;63355.56;5070306;28;20098;-78
2022/01/12 07:23:35;;;;;;;17.90;9.23;;;;;;;-141.50;100.00;63355.56;5067694;28;20420;-77
2022/01/12 07:26:02;;;;;;;16.63;9.50;;;;;;;-141.50;100.00;63355.56;5075361;28;20071;-78
2022/01/12 07:28:28;;;;;;;17.85;9.60;;;;;;;-141.50;100.00;63355.56;5090918;28;20447;-78
2022/01/12 07:30:55;;;;;;;20.20;9.75;;;;;;;-141.50;100.00;63355.56;5068127;28;20058;-79
2022/01/12 07:33:22;;;;;;;17.60;8.95;;;;;;;-141.50;100.00;63355.56;5091140;28;20040;-79
2022/01/12 07:35:49;;;;;;;18.63;9.68;;;;;;;-141.50;100.00;63355.56;5102287;28;20278;-78
2022/01/12 07:38:15;;;;;;;21.35;9.25;;;;;;;-141.50;100.00;63355.56;5095181;28;20052;-78
2022/01/12 07:40:42;;;;;;;16.95;9.02;;;;;;;-141.50;100.00;63355.56;5091313;28;20053;-78
2022/01/12 07:43:09;;;;;;;18.35;8.43;;;;;;;-141.50;100.00;63355.56;5093915;28;20750;-79
2022/01/12 07:45:37;;;;;;;15.48;8.13;;;;;;;-141.50;100.00;63355.56;5089226;28;20396;-77
2022/01/12 07:48:04;;;;;;;19.52;8.82;;;;;;;-141.50;100.00;63355.56;5083782;28;20445;-78
2022/01/12 07:50:31;;;;;;;23.75;9.52;;;;;;;-141.50;100.00;63355.56;5073802;28;20450;-76
2022/01/12 07:52:58;;;;;;;17.73;8.52;;;;;;;-141.50;100.00;63355.56;5084522;28;20078;-78
2022/01/12 07:55:24;;;;;;;17.05;8.98;;;;;;;-141.50;100.00;63355.56;5087913;28;20070;-77
2022/01/12 07:57:52;;;;;;;17.38;8.73;;;;;;;-141.50;100.00;63355.56;5079956;28;20052;-77
2022/01/12 08:00:20;;;;;;;19.67;8.93;;;;;;;-141.50;100.00;63355.56;5073065;28;20060;-76
2022/01/12 08:02:49;;;;;;;19.33;9.55;;;;;;;-141.50;100.00;63355.56;5070837;28;20463;-78
2022/01/12 08:05:18;;;;;;;20.35;9.85;;;;;;;-141.50;100.00;63355.56;5073074;28;20052;-78
2022/01/12 08:07:45;;;;;;;26.92;11.07;;;;;;;-141.50;100.00;63355.56;5072017;28;20072;-79
2022/01/12 08:10:12;;;;;;;20.15;10.45;;;;;;;-141.50;100.00;63355.56;5071522;28;20052;-78
2022/01/12 08:12:39;;;;;;;19.27;9.95;;;;;;;-141.50;100.00;63355.56;5084003;28;20244;-78
2022/01/12 08:15:07;;;;;;;25.73;11.07;;;;;;;-141.50;100.00;63355.56;5092585;28;20099;-78
2022/01/12 08:17:35;;;;;;;20.27;10.07;;;;;;;-141.50;100.00;63355.56;5074114;28;20244;-78
2022/01/12 08:20:07;;;;;;;21.40;10.38;;;;;;;-141.50;100.00;63355.56;5071415;28;20131;-79
2022/01/12 08:22:34;;;;;;;17.40;9.30;;;;;;;-141.50;100.00;63355.56;5070663;28;20331;-78
2022/01/12 08:25:02;;;;;;;24.52;9.90;;;;;;;-141.50;100.00;63355.56;5069759;28;20265;-77
2022/01/12 08:27:29;;;;;;;21.35;9.65;;;;;;;-141.50;100.00;63355.56;5070530;28;20478;-78
2022/01/12 08:30:00;;;;;;;19.88;9.10;;;;;;;-141.50;100.00;63355.56;5071949;28;20130;-78
2022/01/12 08:32:28;;;;;;;19.35;9.05;;;;;;;-141.50;100.00;63355.56;5049127;28;20252;-78
2022/01/12 08:34:56;;;;;;;18.45;8.55;;;;;;;-141.50;100.00;63355.56;5051663;28;20048;-78
2022/01/12 08:37:23;;;;;;;18.90;9.75;;;;;;;-141.50;100.00;63355.56;5068396;28;20052;-78
2022/01/12 08:39:51;;;;;;;17.30;8.70;;;;;;;-141.50;100.00;63355.56;5068193;28;20064;-78
2022/01/12 08:42:18;;;;;;;18.73;9.13;;;;;;;-141.50;100.00;63355.56;5071247;28;20079;-78
2022/01/12 08:44:45;;;;;;;21.20;9.52;;;;;;;-141.50;100.00;63355.56;5069272;28;20044;-78
2022/01/12 08:47:12;;;;;;;19.90;9.38;;;;;;;-141.50;100.00;63355.56;5069415;28;20057;-78
2022/01/12 08:49:38;;;;;;;23.45;9.35;;;;;;;-141.50;100.00;63355.56;5075114;28;20048;-78
2022/01/12 08:52:06;;;;;;;20.48;9.23;;;;;;;-141.50;100.00;63355.56;5070858;28;20500;-78
2022/01/12 08:54:32;;;;;;;23.38;9.57;;;;;;;-141.50;100.00;63355.56;5070393;28;20418;-77
2022/01/12 08:56:59;;;;;;;20.08;9.57;;;;;;;-141.50;100.00;63355.56;5068364;28;20412;-77
2022/01/12 08:59:27;;;;;;;20.30;9.68;;;;;;;-141.50;100.00;63355.56;5070383;28;20114;-77
2022/01/12 09:01:54;;;;;;;20.63;9.68;;;;;;;-141.50;100.00;63355.56;5071480;28;20067;-76
2022/01/12 09:04:21;;;;;;;18.80;9.35;;;;;;;-141.50;100.00;63355.56;5071728;28;20164;-77
2022/01/12 09:06:50;;;;;;;18.88;9.25;;;;;;;-141.50;100.00;63355.56;5070723;28;20535;-78
2022/01/12 09:09:16;;;;;;;22.17;10.10;;;;;;;-141.50;100.00;63355.56;5070866;28;20102;-78
2022/01/12 09:11:43;;;;;;;18.15;9.70;;;;;;;-141.50;100.00;63355.56;5069348;28;20109;-77
2022/01/12 09:14:09;;;;;;;17.50;9.70;;;;;;;-141.50;100.00;63355.56;5070400;28;20074;-78
2022/01/12 09:16:36;;;;;;;19.00;9.00;;;;;;;-141.50;100.00;63355.56;5070483;28;20075;-78
2022/01/12 09:19:03;;;;;;;19.90;9.25;;;;;;;-141.50;100.00;63355.56;5069873;28;20113;-78
2022/01/12 09:21:30;;;;;;;16.65;9.23;;;;;;;-141.50;100.00;63355.56;5071195;28;20059;-77
2022/01/12 09:23:56;;;;;;;18.83;9.07;;;;;;;-141.50;100.00;63355.56;5070737;28;20514;-78
2022/01/12 09:26:23;;;;;;;21.45;9.57;;;;;;;-141.50;100.00;63355.56;5069718;28;20056;-77
2022/01/12 09:28:50;;;;;;;19.60;9.73;;;;;;;-141.50;100.00;63355.56;5070783;28;20110;-77
2022/01/12 09:31:17;;;;;;;23.58;9.52;;;;;;;-141.50;100.00;63355.56;5072444;28;20076;-79
2022/01/12 09:33:43;;;;;;;17.40;9.50;;;;;;;-141.50;100.00;63355.56;5070536;28;20048;-80
2022/01/12 09:36:10;;;;;;;21.60;10.07;;;;;;;-141.50;100.00;63355.56;5070584;28;20057;-79
2022/01/12 09:38:38;;;;;;;19.25;9.15;;;;;;;-141.50;100.00;63355.56;5074354;28;20044;-79
2022/01/12 09:41:04;;;;;;;19.27;9.15;;;;;;;-141.50;100.00;63355.56;5074828;28;20064;-79
2022/01/12 09:43:34;;;;;;;20.20;8.82;;;;;;;-141.50;100.00;63355.56;5093235;28;20052;-79
2022/01/12 09:46:01;;;;;;;16.38;9.07;;;;;;;-141.50;100.00;63355.56;5095613;28;20075;-79
2022/01/12 09:48:33;;;;;;;22.20;9.95;;;;;;;-141.50;100.00;63355.56;5095195;28;20257;-79
2022/01/12 09:51:04;;;;;;;15.68;8.43;;;;;;;-141.50;100.00;63355.56;5104882;28;20048;-80
2022/01/12 09:53:32;;;;;;;15.88;7.97;;;;;;;-141.50;100.00;63355.56;5107144;28;20044;-79
2022/01/12 09:55:59;;;;;;;18.25;7.90;;;;;;;-141.50;100.00;63355.56;5098662;28;20117;-80
2022/01/12 09:58:33;;;;;;;14.32;7.72;;;;;;;-141.50;100.00;63355.56;5095693;28;20502;-79
2022/01/12 10:01:01;;;;;;;18.27;7.70;;;;;;;-141.50;100.00;63355.56;5095390;28;20056;-79
2022/01/12 10:03:32;;;;;;;16.35;7.97;;;;;;;-141.50;100.00;63355.56;5092579;28;20048;-79
2022/01/12 10:05:58;;;;;;;16.83;7.78;;;;;;;-141.50;100.00;63355.56;5093905;28;20078;-80
2022/01/12 10:08:25;;;;;;;16.58;8.38;;;;;;;-141.50;100.00;63355.56;5094089;28;20044;-78
2022/01/12 10:11:10;;;;;;;15.50;8.27;;;;;;;-141.50;100.00;63355.56;5093193;28;20048;-80
2022/01/12 10:13:40;;;;;;;13.68;7.72;;;;;;;-141.50;100.00;63355.56;5096371;28;20044;-79
2022/01/12 10:16:14;;;;;;;15.32;7.95;;;;;;;-141.50;100.00;63355.56;5100800;28;20055;-79
2022/01/12 10:18:53;;;;;;;14.05;8.25;;;;;;;-141.50;100.00;63355.56;5106341;28;20050;-80
2022/01/12 10:21:25;;;;;;;16.95;9.15;;;;;;;-141.50;100.00;63355.56;5095443;28;20048;-81
2022/01/12 10:24:09;;;;;;;17.45;8.48;;;;;;;-141.50;100.00;63355.56;5091583;28;20052;-79
2022/01/12 10:26:39;;;;;;;14.98;7.78;;;;;;;-141.50;100.00;63355.56;5089333;28;20048;-78
2022/01/12 10:29:12;;;;;;;22.15;9.25;;;;;;;-141.50;100.00;63355.56;5092568;28;20138;-80
2022/01/12 10:32:00;;;;;;;14.85;7.80;;;;;;;-141.50;100.00;63355.56;5091915;28;20052;-79
2022/01/12 10:34:28;;;;;;;22.65;8.40;;;;;;;-141.50;100.00;63355.56;5091194;28;20128;-77
2022/01/12 10:36:57;;;;;;;17.38;9.15;;;;;;;-141.50;100.00;63355.56;5091161;28;20446;-78
2022/01/12 10:39:29;;;;;;;17.20;8.45;;;;;;;-141.50;100.00;63355.56;5090031;28;20105;-79
2022/01/12 10:42:04;;;;;;;18.45;9.25;;;;;;;-141.50;100.00;63355.56;5091741;28;20059;-81
2022/01/12 10:44:44;;;;;;;11.90;6.47;;;;;;;-141.50;100.00;63355.56;5096924;28;20044;-79
2022/01/12 10:47:13;;;;;;;17.63;8.00;;;;;;;-141.50;100.00;63355.56;5092639;28;20306;-81
2022/01/12 10:49:56;;;;;;;15.52;8.48;;;;;;;-141.50;100.00;63355.56;5092658;28;20113;-80
2022/01/12 10:52:26;;;;;;;13.65;7.90;;;;;;;-141.50;100.00;63355.56;5092666;28;20052;-79
2022/01/12 10:55:03;;;;;;;15.65;8.00;;;;;;;-141.50;100.00;63355.56;5102914;28;20522;-77
2022/01/12 10:57:33;;;;;;;18.60;8.30;;;;;;;-141.50;100.00;63355.56;5105149;28;20044;-77
2022/01/12 11:00:07;;;;;;;13.85;7.25;;;;;;;-141.50;100.00;63355.56;5094377;28;20120;-78
2022/01/12 11:02:35;;;;;;;24.42;8.13;;;;;;;-141.50;100.00;63355.56;5068269;28;20508;-78
2022/01/12 11:05:03;;;;;;;17.83;7.78;;;;;;;-141.50;100.00;63355.56;5069611;28;20052;-78
2022/01/12 11:07:30;;;;;;;17.92;8.13;;;;;;;-141.50;100.00;63355.56;5072004;28;20048;-77
2022/01/12 11:10:00;;;;;;;15.07;7.30;;;;;;;-141.50;100.00;63355.56;5069265;28;20094;-81
2022/01/12 11:12:28;;;;;;;16.45;7.85;;;;;;;-141.50;100.00;63355.56;5073444;28;20094;-79
2022/01/12 11:14:55;;;;;;;17.20;8.00;;;;;;;-141.50;100.00;63355.56;5071509;28;20060;-78
2022/01/12 11:17:22;;;;;;;15.52;8.32;;;;;;;-141.50;100.00;63355.56;5068875;28;20106;-78
2022/01/12 11:20:12;;;;;;;16.83;7.47;;;;;;;-141.50;100.00;63355.56;5070532;28;20163;-79
2022/01/12 11:22:43;;;;;;;15.10;8.30;;;;;;;-141.50;100.00;63355.56;5059197;28;20098;-78
2022/01/12 11:25:22;;;;;;;20.77;8.80;;;;;;;-141.50;100.00;63355.56;5072337;28;20079;-79
2022/01/12 11:28:02;;;;;;;16.17;8.57;;;;;;;-141.50;100.00;63355.56;5072816;28;20159;-79
2022/01/12 11:30:33;;;;;;;16.63;8.70;;;;;;;-141.50;100.00;63355.56;5072933;28;20051;-77
2022/01/12 11:33:08;;;;;;;19.85;9.35;;;;;;;-141.50;100.00;63355.56;5067932;28;20088;-79
2022/01/12 11:35:38;;;;;;;20.35;9.65;;;;;;;-141.50;100.00;63355.56;5071945;28;20416;-79
2022/01/12 11:38:06;;;;;;;15.80;8.75;;;;;;;-141.50;100.00;63355.56;5077185;28;20337;-79
2022/01/12 11:40:37;;;;;;;14.68;7.80;;;;;;;-141.50;100.00;63355.56;5075648;28;20055;-80
2022/01/12 11:43:25;;;;;;;18.23;8.35;;;;;;;-141.50;100.00;63355.56;5074889;28;20044;-79
2022/01/12 11:46:23;;;;;;;16.88;8.40;;;;;;;-141.50;100.00;63355.56;5075469;28;20106;-80
2022/01/12 11:48:58;;;;;;;15.32;8.13;;;;;;;-141.50;100.00;63355.56;5067791;28;20060;-81
2022/01/12 11:51:38;;;;;;;15.73;7.63;;;;;;;-141.50;100.00;63355.56;5078984;28;20036;-79
2022/01/12 11:54:16;;;;;;;14.30;7.35;;;;;;;-141.50;100.00;63355.56;5074866;28;20311;-80
2022/01/12 11:56:56;;;;;;;14.32;7.18;;;;;;;-141.50;100.00;63355.56;5073641;28;20201;-78
2022/01/12 11:59:26;;;;;;;13.18;7.18;;;;;;;-141.50;100.00;63355.56;5071519;28;20396;-79
2022/01/12 12:02:06;;;;;;;15.68;6.80;;;;;;;-141.50;100.00;63355.56;5076359;28;20071;-79
2022/01/12 12:04:33;;;;;;;13.77;7.55;;;;;;;-141.50;100.00;63355.56;5075299;28;20112;-81
2022/01/12 12:07:17;;;;;;;13.45;7.60;;;;;;;-141.50;100.00;63355.56;5072616;28;20052;-79
2022/01/12 12:09:53;;;;;;;12.18;6.97;;;;;;;-141.50;100.00;63355.56;5074382;28;20170;-79
2022/01/12 12:12:23;;;;;;;14.43;7.50;;;;;;;-141.50;100.00;63355.56;5077214;28;20516;-78
2022/01/12 12:14:55;;;;;;;14.38;7.93;;;;;;;-141.50;100.00;63355.56;5077447;28;20040;-78
2022/01/12 12:17:29;;;;;;;13.10;7.85;;;;;;;-141.50;100.00;63355.56;5077472;28;20052;-80
2022/01/12 12:19:57;;;;;;;13.30;7.67;;;;;;;-141.50;100.00;63355.56;5080282;28;20558;-79
2022/01/12 12:22:28;;;;;;;14.73;8.30;;;;;;;-141.50;100.00;63355.56;5076441;28;20049;-79